sensor_id;sensor_type;location;lat;lon;timestamp;pressure;altitude;pressure_sealevel;temperature;humidity
69245;BME280;56357;52.304;4.870;2024-03-22T00:01:53;102268.69;;;19.48;54.46
69245;BME280;56357;52.304;4.870;2024-03-22T00:04:20;102257.53;;;19.37;54.71
69245;BME280;56357;52.304;4.870;2024-03-22T00:06:47;102251.09;;;19.36;54.88
69245;BME280;56357;52.304;4.870;2024-03-22T00:09:16;102246.75;;;19.45;54.68
69245;BME280;56357;52.304;4.870;2024-03-22T00:11:43;102253.38;;;19.39;54.64
69245;BME280;56357;52.304;4.870;2024-03-22T00:14:11;102252.34;;;19.29;54.88
69245;BME280;56357;52.304;4.870;2024-03-22T00:16:38;102246.41;;;19.42;54.52
69245;BME280;56357;52.304;4.870;2024-03-22T00:19:05;102235.22;;;19.30;54.83
69245;BME280;56357;52.304;4.870;2024-03-22T00:21:32;102228.56;;;19.19;55.04
69245;BME280;56357;52.304;4.870;2024-03-22T00:23:59;102222.34;;;19.17;55.01
69245;BME280;56357;52.304;4.870;2024-03-22T00:26:27;102209.84;;;19.25;55.04
69245;BME280;56357;52.304;4.870;2024-03-22T00:28:54;102203.41;;;19.25;54.93
69245;BME280;56357;52.304;4.870;2024-03-22T00:31:20;102203.88;;;19.22;55.02
69245;BME280;56357;52.304;4.870;2024-03-22T00:33:47;102197.50;;;19.09;55.26
69245;BME280;56357;52.304;4.870;2024-03-22T00:36:13;102192.25;;;19.13;55.14
69245;BME280;56357;52.304;4.870;2024-03-22T00:38:40;102195.19;;;19.23;55.01
69245;BME280;56357;52.304;4.870;2024-03-22T00:41:06;102189.06;;;19.09;54.91
69245;BME280;56357;52.304;4.870;2024-03-22T00:43:33;102185.69;;;19.07;55.19
69245;BME280;56357;52.304;4.870;2024-03-22T00:45:59;102189.19;;;18.98;55.57
69245;BME280;56357;52.304;4.870;2024-03-22T00:48:28;102193.53;;;19.05;55.42
69245;BME280;56357;52.304;4.870;2024-03-22T00:50:54;102195.13;;;19.01;55.35
69245;BME280;56357;52.304;4.870;2024-03-22T00:53:22;102193.34;;;19.12;55.13
69245;BME280;56357;52.304;4.870;2024-03-22T00:55:48;102193.69;;;18.99;55.48
69245;BME280;56357;52.304;4.870;2024-03-22T00:58:18;102191.22;;;18.86;55.69
69245;BME280;56357;52.304;4.870;2024-03-22T01:00:44;102200.75;;;19.01;55.43
69245;BME280;56357;52.304;4.870;2024-03-22T01:03:12;102204.38;;;19.02;55.27
69245;BME280;56357;52.304;4.870;2024-03-22T01:05:38;102195.38;;;19.00;55.50
69245;BME280;56357;52.304;4.870;2024-03-22T01:08:07;102192.81;;;18.98;55.50
69245;BME280;56357;52.304;4.870;2024-03-22T01:10:34;102194.28;;;18.84;55.83
69245;BME280;56357;52.304;4.870;2024-03-22T01:13:01;102187.13;;;18.93;55.43
69245;BME280;56357;52.304;4.870;2024-03-22T01:15:27;102177.06;;;18.81;55.66
69245;BME280;56357;52.304;4.870;2024-03-22T01:17:55;102178.38;;;18.90;55.61
69245;BME280;56357;52.304;4.870;2024-03-22T01:20:22;102175.47;;;18.85;55.64
69245;BME280;56357;52.304;4.870;2024-03-22T01:22:51;102186.28;;;18.93;55.18
69245;BME280;56357;52.304;4.870;2024-03-22T01:25:18;102181.69;;;19.03;55.36
69245;BME280;56357;52.304;4.870;2024-03-22T01:27:46;102171.63;;;18.91;55.43
69245;BME280;56357;52.304;4.870;2024-03-22T01:30:12;102178.72;;;18.93;55.45
69245;BME280;56357;52.304;4.870;2024-03-22T01:32:40;102183.38;;;18.88;55.49
69245;BME280;56357;52.304;4.870;2024-03-22T01:35:07;102180.13;;;18.79;55.62
69245;BME280;56357;52.304;4.870;2024-03-22T01:37:35;102177.84;;;18.76;55.54
69245;BME280;56357;52.304;4.870;2024-03-22T01:40:02;102175.53;;;18.73;55.57
69245;BME280;56357;52.304;4.870;2024-03-22T01:42:29;102178.25;;;18.68;55.81
69245;BME280;56357;52.304;4.870;2024-03-22T01:44:56;102171.91;;;18.73;55.50
69245;BME280;56357;52.304;4.870;2024-03-22T01:47:23;102167.03;;;18.85;55.33
69245;BME280;56357;52.304;4.870;2024-03-22T01:49:52;102164.69;;;18.77;55.17
69245;BME280;56357;52.304;4.870;2024-03-22T01:52:20;102167.63;;;18.87;55.11
69245;BME280;56357;52.304;4.870;2024-03-22T01:54:46;102171.13;;;18.77;55.56
69245;BME280;56357;52.304;4.870;2024-03-22T01:57:13;102157.59;;;18.74;55.44
69245;BME280;56357;52.304;4.870;2024-03-22T01:59:39;102173.59;;;18.74;55.30
69245;BME280;56357;52.304;4.870;2024-03-22T02:02:06;102176.31;;;18.69;55.68
69245;BME280;56357;52.304;4.870;2024-03-22T02:04:32;102164.69;;;18.77;55.59
69245;BME280;56357;52.304;4.870;2024-03-22T02:06:59;102167.28;;;18.67;55.52
69245;BME280;56357;52.304;4.870;2024-03-22T02:09:26;102154.25;;;18.61;55.71
69245;BME280;56357;52.304;4.870;2024-03-22T02:11:53;102150.28;;;18.73;55.50
69245;BME280;56357;52.304;4.870;2024-03-22T02:14:19;102149.19;;;18.74;55.49
69245;BME280;56357;52.304;4.870;2024-03-22T02:16:46;102131.63;;;18.67;55.58
69245;BME280;56357;52.304;4.870;2024-03-22T02:19:12;102126.69;;;18.58;55.71
69245;BME280;56357;52.304;4.870;2024-03-22T02:21:39;102129.28;;;18.76;55.50
69245;BME280;56357;52.304;4.870;2024-03-22T02:24:05;102126.53;;;18.64;55.74
69245;BME280;56357;52.304;4.870;2024-03-22T02:26:32;102121.28;;;18.68;55.70
69245;BME280;56357;52.304;4.870;2024-03-22T02:28:57;102103.84;;;18.66;55.75
69245;BME280;56357;52.304;4.870;2024-03-22T02:31:24;102096.88;;;18.85;55.37
69245;BME280;56357;52.304;4.870;2024-03-22T02:33:51;102089.38;;;18.74;55.46
69245;BME280;56357;52.304;4.870;2024-03-22T02:36:17;102089.47;;;18.79;55.39
69245;BME280;56357;52.304;4.870;2024-03-22T02:38:43;102080.97;;;18.74;55.30
69245;BME280;56357;52.304;4.870;2024-03-22T02:41:09;102083.84;;;18.79;55.53
69245;BME280;56357;52.304;4.870;2024-03-22T02:43:35;102077.91;;;18.92;55.21
69245;BME280;56357;52.304;4.870;2024-03-22T02:46:02;102073.97;;;18.93;55.06
69245;BME280;56357;52.304;4.870;2024-03-22T02:48:27;102073.28;;;19.02;54.84
69245;BME280;56357;52.304;4.870;2024-03-22T02:50:57;102059.78;;;18.83;55.20
69245;BME280;56357;52.304;4.870;2024-03-22T02:53:23;102070.31;;;18.92;55.18
69245;BME280;56357;52.304;4.870;2024-03-22T02:55:49;102066.91;;;19.07;54.90
69245;BME280;56357;52.304;4.870;2024-03-22T02:58:17;102062.97;;;19.08;54.67
69245;BME280;56357;52.304;4.870;2024-03-22T03:00:43;102055.25;;;19.15;54.52
69245;BME280;56357;52.304;4.870;2024-03-22T03:03:09;102058.16;;;18.87;54.94
69245;BME280;56357;52.304;4.870;2024-03-22T03:05:36;102045.16;;;18.97;54.99
69245;BME280;56357;52.304;4.870;2024-03-22T03:08:01;102040.44;;;19.03;54.80
69245;BME280;56357;52.304;4.870;2024-03-22T03:10:28;102037.00;;;18.96;54.66
69245;BME280;56357;52.304;4.870;2024-03-22T03:12:54;102037.09;;;18.84;55.04
69245;BME280;56357;52.304;4.870;2024-03-22T03:15:21;102031.09;;;18.97;54.91
69245;BME280;56357;52.304;4.870;2024-03-22T03:17:47;102031.88;;;18.93;55.09
69245;BME280;56357;52.304;4.870;2024-03-22T03:20:13;102026.91;;;19.00;55.05
69245;BME280;56357;52.304;4.870;2024-03-22T03:22:40;102021.97;;;19.07;54.99
69245;BME280;56357;52.304;4.870;2024-03-22T03:25:07;102008.97;;;19.01;55.16
69245;BME280;56357;52.304;4.870;2024-03-22T03:27:33;102006.91;;;19.13;54.90
69245;BME280;56357;52.304;4.870;2024-03-22T03:30:01;102000.28;;;19.02;54.86
69245;BME280;56357;52.304;4.870;2024-03-22T03:32:27;101998.22;;;19.14;54.73
69245;BME280;56357;52.304;4.870;2024-03-22T03:34:54;102004.00;;;19.08;54.86
69245;BME280;56357;52.304;4.870;2024-03-22T03:37:20;102004.69;;;19.15;54.72
69245;BME280;56357;52.304;4.870;2024-03-22T03:39:47;102001.09;;;19.19;54.72
69245;BME280;56357;52.304;4.870;2024-03-22T03:42:13;102002.53;;;19.22;54.62
69245;BME280;56357;52.304;4.870;2024-03-22T03:44:40;101994.06;;;19.17;54.33
69245;BME280;56357;52.304;4.870;2024-03-22T03:47:06;101995.41;;;19.14;54.94
69245;BME280;56357;52.304;4.870;2024-03-22T03:49:33;101991.25;;;19.17;54.75
69245;BME280;56357;52.304;4.870;2024-03-22T03:51:59;101990.44;;;19.22;54.51
69245;BME280;56357;52.304;4.870;2024-03-22T03:54:25;101990.81;;;19.08;55.15
69245;BME280;56357;52.304;4.870;2024-03-22T03:56:51;101983.72;;;19.23;54.53
69245;BME280;56357;52.304;4.870;2024-03-22T03:59:18;101982.88;;;19.22;54.59
69245;BME280;56357;52.304;4.870;2024-03-22T04:01:44;101990.34;;;19.33;54.48
69245;BME280;56357;52.304;4.870;2024-03-22T04:04:10;101999.34;;;19.35;54.53
69245;BME280;56357;52.304;4.870;2024-03-22T04:06:36;101992.97;;;19.23;54.65
69245;BME280;56357;52.304;4.870;2024-03-22T04:09:02;101990.75;;;19.25;54.71
69245;BME280;56357;52.304;4.870;2024-03-22T04:11:28;101989.72;;;19.31;54.37
69245;BME280;56357;52.304;4.870;2024-03-22T04:13:55;102005.63;;;19.42;54.46
69245;BME280;56357;52.304;4.870;2024-03-22T04:16:21;101989.41;;;19.28;54.81
69245;BME280;56357;52.304;4.870;2024-03-22T04:18:47;101987.94;;;19.25;54.81
69245;BME280;56357;52.304;4.870;2024-03-22T04:21:13;101992.38;;;19.38;54.47
69245;BME280;56357;52.304;4.870;2024-03-22T04:23:40;101985.91;;;19.37;54.51
69245;BME280;56357;52.304;4.870;2024-03-22T04:26:05;101986.53;;;19.44;54.30
69245;BME280;56357;52.304;4.870;2024-03-22T04:28:32;101989.84;;;19.36;54.31
69245;BME280;56357;52.304;4.870;2024-03-22T04:30:59;101989.94;;;19.46;54.38
69245;BME280;56357;52.304;4.870;2024-03-22T04:33:26;101986.53;;;19.44;54.34
69245;BME280;56357;52.304;4.870;2024-03-22T04:35:53;101989.94;;;19.46;54.18
69245;BME280;56357;52.304;4.870;2024-03-22T04:38:20;101982.44;;;19.52;54.09
69245;BME280;56357;52.304;4.870;2024-03-22T04:40:47;101990.94;;;19.35;54.72
69245;BME280;56357;52.304;4.870;2024-03-22T04:43:14;101986.91;;;19.31;55.02
69245;BME280;56357;52.304;4.870;2024-03-22T04:45:42;101989.25;;;19.34;54.93
69245;BME280;56357;52.304;4.870;2024-03-22T04:48:09;101987.06;;;19.41;54.34
69245;BME280;56357;52.304;4.870;2024-03-22T04:50:35;102000.94;;;19.48;54.26
69245;BME280;56357;52.304;4.870;2024-03-22T04:53:02;101988.44;;;19.39;54.55
69245;BME280;56357;52.304;4.870;2024-03-22T04:55:27;101980.47;;;19.52;54.35
69245;BME280;56357;52.304;4.870;2024-03-22T04:57:54;101977.97;;;19.56;54.27
69245;BME280;56357;52.304;4.870;2024-03-22T05:00:21;101985.91;;;19.37;54.25
69245;BME280;56357;52.304;4.870;2024-03-22T05:02:47;101975.19;;;19.34;54.64
69245;BME280;56357;52.304;4.870;2024-03-22T05:05:13;101972.31;;;19.51;54.46
69245;BME280;56357;52.304;4.870;2024-03-22T05:07:40;101973.81;;;19.37;54.68
69245;BME280;56357;52.304;4.870;2024-03-22T05:10:06;101975.44;;;19.54;54.14
69245;BME280;56357;52.304;4.870;2024-03-22T05:12:34;101964.56;;;19.36;54.64
69245;BME280;56357;52.304;4.870;2024-03-22T05:14:59;101969.91;;;19.38;54.58
69245;BME280;56357;52.304;4.870;2024-03-22T05:17:27;101963.09;;;19.55;54.47
69245;BME280;56357;52.304;4.870;2024-03-22T05:19:55;101968.72;;;19.34;54.54
69245;BME280;56357;52.304;4.870;2024-03-22T05:22:22;101964.59;;;19.41;54.62
69245;BME280;56357;52.304;4.870;2024-03-22T05:24:48;101965.28;;;19.32;54.80
69245;BME280;56357;52.304;4.870;2024-03-22T05:27:15;101957.66;;;19.49;54.40
69245;BME280;56357;52.304;4.870;2024-03-22T05:29:41;101957.84;;;19.42;54.60
69245;BME280;56357;52.304;4.870;2024-03-22T05:32:08;101946.75;;;19.31;54.82
69245;BME280;56357;52.304;4.870;2024-03-22T05:34:34;101955.13;;;19.47;54.31
69245;BME280;56357;52.304;4.870;2024-03-22T05:37:02;101950.84;;;19.66;54.12
69245;BME280;56357;52.304;4.870;2024-03-22T05:39:28;101948.53;;;19.63;54.16
69245;BME280;56357;52.304;4.870;2024-03-22T05:41:55;101945.53;;;19.43;54.64
69245;BME280;56357;52.304;4.870;2024-03-22T05:44:21;101941.81;;;19.38;54.76
69245;BME280;56357;52.304;4.870;2024-03-22T05:46:49;101934.75;;;19.35;56.08
69245;BME280;56357;52.304;4.870;2024-03-22T05:49:16;101932.56;;;19.42;54.74
69245;BME280;56357;52.304;4.870;2024-03-22T05:51:43;101938.78;;;19.44;54.98
69245;BME280;56357;52.304;4.870;2024-03-22T05:54:09;101938.97;;;19.59;54.86
69245;BME280;56357;52.304;4.870;2024-03-22T05:56:36;101936.47;;;19.63;54.53
69245;BME280;56357;52.304;4.870;2024-03-22T05:59:02;101932.38;;;19.49;55.28
69245;BME280;56357;52.304;4.870;2024-03-22T06:01:29;101931.69;;;19.63;54.81
69245;BME280;56357;52.304;4.870;2024-03-22T06:03:54;101930.72;;;19.79;54.36
69245;BME280;56357;52.304;4.870;2024-03-22T06:06:21;101926.13;;;19.68;54.74
69245;BME280;56357;52.304;4.870;2024-03-22T06:08:50;101926.16;;;19.73;54.57
69245;BME280;56357;52.304;4.870;2024-03-22T06:11:18;101922.53;;;19.73;54.67
69245;BME280;56357;52.304;4.870;2024-03-22T06:13:43;101920.78;;;19.67;55.16
69245;BME280;56357;52.304;4.870;2024-03-22T06:16:10;101923.84;;;19.65;55.25
69245;BME280;56357;52.304;4.870;2024-03-22T06:18:36;101929.81;;;20.00;54.48
69245;BME280;56357;52.304;4.870;2024-03-22T06:21:03;101921.69;;;19.72;54.61
69245;BME280;56357;52.304;4.870;2024-03-22T06:23:30;101924.94;;;19.59;55.04
69245;BME280;56357;52.304;4.870;2024-03-22T06:25:57;101921.44;;;19.79;54.49
69245;BME280;56357;52.304;4.870;2024-03-22T06:28:23;101925.69;;;19.81;54.86
69245;BME280;56357;52.304;4.870;2024-03-22T06:30:50;101918.69;;;19.84;54.87
69245;BME280;56357;52.304;4.870;2024-03-22T06:33:16;101926.13;;;19.68;54.72
69245;BME280;56357;52.304;4.870;2024-03-22T06:35:43;101917.38;;;19.91;54.81
69245;BME280;56357;52.304;4.870;2024-03-22T06:38:09;101921.53;;;19.89;54.67
69245;BME280;56357;52.304;4.870;2024-03-22T06:40:36;101929.06;;;19.78;55.20
69245;BME280;56357;52.304;4.870;2024-03-22T06:43:01;101924.22;;;19.74;55.54
69245;BME280;56357;52.304;4.870;2024-03-22T06:45:28;101930.00;;;19.62;55.47
69245;BME280;56357;52.304;4.870;2024-03-22T06:47:54;101930.44;;;19.49;55.42
69245;BME280;56357;52.304;4.870;2024-03-22T06:50:21;101922.44;;;19.63;55.49
69245;BME280;56357;52.304;4.870;2024-03-22T06:52:53;101923.94;;;19.49;56.03
69245;BME280;56357;52.304;4.870;2024-03-22T06:55:20;101928.97;;;19.73;55.27
69245;BME280;56357;52.304;4.870;2024-03-22T06:57:47;101919.22;;;19.54;55.54
69245;BME280;56357;52.304;4.870;2024-03-22T07:00:14;101924.34;;;19.57;56.04
69245;BME280;56357;52.304;4.870;2024-03-22T07:02:40;101922.25;;;19.74;55.51
69245;BME280;56357;52.304;4.870;2024-03-22T07:05:08;101926.72;;;19.70;55.50
69245;BME280;56357;52.304;4.870;2024-03-22T07:07:37;101917.16;;;19.71;55.60
69245;BME280;56357;52.304;4.870;2024-03-22T07:10:05;101911.91;;;19.80;54.62
69245;BME280;56357;52.304;4.870;2024-03-22T07:12:34;101917.22;;;19.76;54.94
69245;BME280;56357;52.304;4.870;2024-03-22T07:15:01;101920.78;;;19.40;55.54
69245;BME280;56357;52.304;4.870;2024-03-22T07:17:28;101919.25;;;19.33;55.73
69245;BME280;56357;52.304;4.870;2024-03-22T07:19:55;101915.47;;;19.70;55.13
69245;BME280;56357;52.304;4.870;2024-03-22T07:22:21;101915.53;;;19.49;55.14
69245;BME280;56357;52.304;4.870;2024-03-22T07:24:48;101923.69;;;19.50;55.33
69245;BME280;56357;52.304;4.870;2024-03-22T07:27:15;101913.84;;;19.48;55.26
69245;BME280;56357;52.304;4.870;2024-03-22T07:29:42;101916.88;;;19.46;55.67
69245;BME280;56357;52.304;4.870;2024-03-22T07:32:08;101924.34;;;19.57;55.40
69245;BME280;56357;52.304;4.870;2024-03-22T07:34:35;101918.66;;;19.52;55.42
69245;BME280;56357;52.304;4.870;2024-03-22T07:37:01;101926.19;;;19.47;55.19
69245;BME280;56357;52.304;4.870;2024-03-22T07:39:29;101927.50;;;19.66;55.26
69245;BME280;56357;52.304;4.870;2024-03-22T07:41:55;101919.06;;;19.66;55.13
69245;BME280;56357;52.304;4.870;2024-03-22T07:44:22;101922.84;;;19.76;54.65
69245;BME280;56357;52.304;4.870;2024-03-22T07:46:50;101924.81;;;19.76;55.12
69245;BME280;56357;52.304;4.870;2024-03-22T07:49:17;101921.22;;;19.80;55.07
69245;BME280;56357;52.304;4.870;2024-03-22T07:51:43;101924.50;;;19.46;55.57
69245;BME280;56357;52.304;4.870;2024-03-22T07:54:10;101921.53;;;19.57;56.02
69245;BME280;56357;52.304;4.870;2024-03-22T07:56:36;101914.41;;;19.76;56.09
69245;BME280;56357;52.304;4.870;2024-03-22T07:59:03;101927.94;;;19.79;56.08
69245;BME280;56357;52.304;4.870;2024-03-22T08:01:30;101924.94;;;19.91;56.03
69245;BME280;56357;52.304;4.870;2024-03-22T08:03:56;101924.91;;;19.86;55.74
69245;BME280;56357;52.304;4.870;2024-03-22T08:06:22;101926.56;;;19.82;55.71
69245;BME280;56357;52.304;4.870;2024-03-22T08:08:49;101926.25;;;19.78;55.40
69245;BME280;56357;52.304;4.870;2024-03-22T08:11:14;101926.72;;;19.70;55.76
69245;BME280;56357;52.304;4.870;2024-03-22T08:13:41;101924.19;;;19.69;55.96
69245;BME280;56357;52.304;4.870;2024-03-22T08:16:07;101931.63;;;19.58;55.92
69245;BME280;56357;52.304;4.870;2024-03-22T08:18:34;101925.25;;;19.63;55.42
69245;BME280;56357;52.304;4.870;2024-03-22T08:20:59;101920.63;;;19.78;55.74
69245;BME280;56357;52.304;4.870;2024-03-22T08:23:26;101917.22;;;19.76;55.82
69245;BME280;56357;52.304;4.870;2024-03-22T08:25:52;101933.19;;;19.71;55.75
69245;BME280;56357;52.304;4.870;2024-03-22T08:28:19;101916.41;;;19.81;55.77
69245;BME280;56357;52.304;4.870;2024-03-22T08:30:45;101918.28;;;19.70;56.24
69245;BME280;56357;52.304;4.870;2024-03-22T08:33:12;101919.44;;;19.74;55.74
69245;BME280;56357;52.304;4.870;2024-03-22T08:35:38;101912.75;;;19.54;56.78
69245;BME280;56357;52.304;4.870;2024-03-22T08:38:05;101923.78;;;19.60;56.72
69245;BME280;56357;52.304;4.870;2024-03-22T08:40:37;101921.88;;;19.66;57.21
69245;BME280;56357;52.304;4.870;2024-03-22T08:43:05;101907.63;;;19.72;56.25
69245;BME280;56357;52.304;4.870;2024-03-22T08:45:32;101908.78;;;19.76;56.16
69245;BME280;56357;52.304;4.870;2024-03-22T08:48:00;101910.53;;;19.82;56.42
69245;BME280;56357;52.304;4.870;2024-03-22T08:50:26;101908.72;;;19.71;56.46
69245;BME280;56357;52.304;4.870;2024-03-22T08:52:53;101907.56;;;19.67;56.28
69245;BME280;56357;52.304;4.870;2024-03-22T08:55:19;101915.09;;;19.62;55.88
69245;BME280;56357;52.304;4.870;2024-03-22T08:57:46;101909.16;;;19.58;56.48
69245;BME280;56357;52.304;4.870;2024-03-22T09:00:12;101911.84;;;19.75;56.11
69245;BME280;56357;52.304;4.870;2024-03-22T09:02:39;101914.59;;;19.65;56.05
69245;BME280;56357;52.304;4.870;2024-03-22T09:05:06;101907.09;;;19.49;56.19
69245;BME280;56357;52.304;4.870;2024-03-22T09:07:34;101910.53;;;19.56;56.11
69245;BME280;56357;52.304;4.870;2024-03-22T09:10:00;101913.19;;;19.67;55.91
69245;BME280;56357;52.304;4.870;2024-03-22T09:12:27;101910.94;;;19.69;55.97
69245;BME280;56357;52.304;4.870;2024-03-22T09:14:53;101905.09;;;19.71;55.93
69245;BME280;56357;52.304;4.870;2024-03-22T09:17:20;101909.69;;;19.82;55.38
69245;BME280;56357;52.304;4.870;2024-03-22T09:19:46;101906.56;;;19.78;55.47
69245;BME280;56357;52.304;4.870;2024-03-22T09:22:14;101903.03;;;19.61;55.92
69245;BME280;56357;52.304;4.870;2024-03-22T09:24:41;101902.88;;;19.73;55.50
69245;BME280;56357;52.304;4.870;2024-03-22T09:27:08;101903.06;;;19.66;55.80
69245;BME280;56357;52.304;4.870;2024-03-22T09:29:37;101898.66;;;19.75;55.43
69245;BME280;56357;52.304;4.870;2024-03-22T09:32:05;101913.03;;;19.52;55.95
69245;BME280;56357;52.304;4.870;2024-03-22T09:34:33;101904.75;;;19.67;55.63
69245;BME280;56357;52.304;4.870;2024-03-22T09:37:00;101898.47;;;19.55;55.84
69245;BME280;56357;52.304;4.870;2024-03-22T09:39:27;101905.06;;;19.44;56.02
69245;BME280;56357;52.304;4.870;2024-03-22T09:41:57;101897.88;;;19.32;56.28
69245;BME280;56357;52.304;4.870;2024-03-22T09:44:23;101896.44;;;19.29;56.62
69245;BME280;56357;52.304;4.870;2024-03-22T09:46:50;101888.13;;;19.61;55.84
69245;BME280;56357;52.304;4.870;2024-03-22T09:49:16;101905.25;;;19.59;55.70
69245;BME280;56357;52.304;4.870;2024-03-22T09:51:44;101892.63;;;19.35;56.33
69245;BME280;56357;52.304;4.870;2024-03-22T09:54:10;101896.91;;;19.21;56.50
69245;BME280;56357;52.304;4.870;2024-03-22T09:56:40;101891.94;;;19.28;56.63
69245;BME280;56357;52.304;4.870;2024-03-22T09:59:07;101886.53;;;19.22;56.57
69245;BME280;56357;52.304;4.870;2024-03-22T10:01:36;101893.50;;;19.41;56.75
69245;BME280;56357;52.304;4.870;2024-03-22T10:04:02;101883.00;;;19.58;56.88
69245;BME280;56357;52.304;4.870;2024-03-22T10:06:30;101880.94;;;19.48;57.06
69245;BME280;56357;52.304;4.870;2024-03-22T10:09:00;101887.56;;;19.64;57.15
69245;BME280;56357;52.304;4.870;2024-03-22T10:11:27;101884.41;;;19.55;57.30
69245;BME280;56357;52.304;4.870;2024-03-22T10:13:53;101884.72;;;19.59;57.38
69245;BME280;56357;52.304;4.870;2024-03-22T10:16:21;101884.44;;;19.60;57.38
69245;BME280;56357;52.304;4.870;2024-03-22T10:18:47;101891.41;;;19.84;56.21
69245;BME280;56357;52.304;4.870;2024-03-22T10:21:18;101893.31;;;19.47;57.11
69245;BME280;56357;52.304;4.870;2024-03-22T10:23:46;101890.69;;;19.41;57.24
69245;BME280;56357;52.304;4.870;2024-03-22T10:26:16;101900.53;;;19.38;57.20
69245;BME280;56357;52.304;4.870;2024-03-22T10:28:46;101894.47;;;19.51;56.76
69245;BME280;56357;52.304;4.870;2024-03-22T10:31:14;101893.34;;;19.52;56.60
69245;BME280;56357;52.304;4.870;2024-03-22T10:33:44;101900.25;;;19.40;56.83
69245;BME280;56357;52.304;4.870;2024-03-22T10:36:11;101889.34;;;19.43;57.11
69245;BME280;56357;52.304;4.870;2024-03-22T10:38:39;101887.59;;;19.37;57.22
69245;BME280;56357;52.304;4.870;2024-03-22T10:41:06;101891.41;;;19.31;57.29
69245;BME280;56357;52.304;4.870;2024-03-22T10:43:32;101890.19;;;19.22;57.67
69245;BME280;56357;52.304;4.870;2024-03-22T10:46:01;101897.88;;;19.32;57.77
69245;BME280;56357;52.304;4.870;2024-03-22T10:48:30;101886.72;;;19.37;57.61
69245;BME280;56357;52.304;4.870;2024-03-22T10:51:00;101894.09;;;19.69;56.64
69245;BME280;56357;52.304;4.870;2024-03-22T10:53:30;101880.94;;;19.48;56.66
69245;BME280;56357;52.304;4.870;2024-03-22T10:56:00;101887.94;;;19.19;57.18
69245;BME280;56357;52.304;4.870;2024-03-22T10:58:27;101886.41;;;19.11;57.49
69245;BME280;56357;52.304;4.870;2024-03-22T11:00:55;101882.88;;;19.21;57.10
69245;BME280;56357;52.304;4.870;2024-03-22T11:03:23;101874.13;;;19.17;57.43
69245;BME280;56357;52.304;4.870;2024-03-22T11:05:55;101881.31;;;19.30;56.85
69245;BME280;56357;52.304;4.870;2024-03-22T11:08:25;101882.03;;;19.21;57.08
69245;BME280;56357;52.304;4.870;2024-03-22T11:10:53;101880.00;;;19.16;57.41
69245;BME280;56357;52.304;4.870;2024-03-22T11:13:20;101883.88;;;19.10;57.32
69245;BME280;56357;52.304;4.870;2024-03-22T11:15:49;101880.88;;;19.16;57.34
69245;BME280;56357;52.304;4.870;2024-03-22T11:18:16;101875.75;;;19.35;56.81
69245;BME280;56357;52.304;4.870;2024-03-22T11:20:43;101880.59;;;19.18;56.85
69245;BME280;56357;52.304;4.870;2024-03-22T11:23:11;101872.13;;;19.13;57.25
69245;BME280;56357;52.304;4.870;2024-03-22T11:25:39;101869.34;;;19.18;57.27
69245;BME280;56357;52.304;4.870;2024-03-22T11:28:05;101871.63;;;19.21;57.53
69245;BME280;56357;52.304;4.870;2024-03-22T11:30:33;101867.41;;;19.18;57.67
69245;BME280;56357;52.304;4.870;2024-03-22T11:33:03;101868.47;;;19.66;60.13
69245;BME280;56357;52.304;4.870;2024-03-22T11:35:30;101864.59;;;19.72;58.88
69245;BME280;56357;52.304;4.870;2024-03-22T11:37:56;101863.75;;;19.71;58.94
69245;BME280;56357;52.304;4.870;2024-03-22T11:40:25;101859.78;;;19.67;59.11
69245;BME280;56357;52.304;4.870;2024-03-22T11:42:52;101862.81;;;19.61;58.81
69245;BME280;56357;52.304;4.870;2024-03-22T11:45:20;101867.44;;;19.45;59.13
69245;BME280;56357;52.304;4.870;2024-03-22T11:47:47;101865.88;;;19.33;59.46
69245;BME280;56357;52.304;4.870;2024-03-22T11:50:14;101873.09;;;19.50;58.78
69245;BME280;56357;52.304;4.870;2024-03-22T11:52:44;101864.31;;;19.42;59.00
69245;BME280;56357;52.304;4.870;2024-03-22T11:55:12;101866.81;;;19.38;59.05
69245;BME280;56357;52.304;4.870;2024-03-22T11:57:39;101864.84;;;19.39;58.85
69245;BME280;56357;52.304;4.870;2024-03-22T12:00:06;101867.00;;;19.58;58.09
69245;BME280;56357;52.304;4.870;2024-03-22T12:02:37;101856.16;;;19.40;58.53
69245;BME280;56357;52.304;4.870;2024-03-22T12:05:05;101849.09;;;19.38;58.69
69245;BME280;56357;52.304;4.870;2024-03-22T12:07:31;101843.59;;;19.48;58.52
69245;BME280;56357;52.304;4.870;2024-03-22T12:09:58;101841.31;;;19.45;58.56
69245;BME280;56357;52.304;4.870;2024-03-22T12:12:24;101846.03;;;19.39;58.46
69245;BME280;56357;52.304;4.870;2024-03-22T12:14:52;101842.94;;;19.41;58.71
69245;BME280;56357;52.304;4.870;2024-03-22T12:17:17;101842.38;;;19.39;58.50
69245;BME280;56357;52.304;4.870;2024-03-22T12:19:44;101825.19;;;19.35;58.72
69245;BME280;56357;52.304;4.870;2024-03-22T12:22:10;101831.44;;;19.42;58.70
69245;BME280;56357;52.304;4.870;2024-03-22T12:24:37;101832.09;;;19.49;58.69
69245;BME280;56357;52.304;4.870;2024-03-22T12:27:03;101836.50;;;19.40;58.79
69245;BME280;56357;52.304;4.870;2024-03-22T12:29:33;101829.28;;;19.49;58.20
69245;BME280;56357;52.304;4.870;2024-03-22T12:31:59;101823.75;;;19.59;58.81
69245;BME280;56357;52.304;4.870;2024-03-22T12:34:27;101825.66;;;19.54;59.06
69245;BME280;56357;52.304;4.870;2024-03-22T12:36:54;101829.19;;;19.39;58.85
69245;BME280;56357;52.304;4.870;2024-03-22T12:39:21;101820.00;;;19.49;59.40
69245;BME280;56357;52.304;4.870;2024-03-22T12:41:48;101819.41;;;19.47;59.10
69245;BME280;56357;52.304;4.870;2024-03-22T12:44:15;101820.84;;;19.49;59.05
69245;BME280;56357;52.304;4.870;2024-03-22T12:46:40;101816.88;;;19.45;58.84
69245;BME280;56357;52.304;4.870;2024-03-22T12:49:10;101810.06;;;19.36;58.83